Observations for ALICANTE EL ALTET, Spain (LEAL)

LEAL 221430Z 10008KT 070V140 CAVOK 23/17 Q1020 NOSIG
LEAL 221400Z 10007KT 070V130 CAVOK 23/17 Q1019 NOSIG
LEAL 221330Z 09009KT CAVOK 23/16 Q1019 NOSIG
LEAL 221300Z 09009KT CAVOK 24/16 Q1019 NOSIG
LEAL 221230Z 18004KT 100V240 CAVOK 26/15 Q1019 NOSIG
LEAL 221200Z VRB02KT CAVOK 25/15 Q1020 NOSIG
LEAL 221130Z 08005KT 050V120 CAVOK 24/14 Q1020 NOSIG
LEAL 221100Z 07004KT 030V120 CAVOK 24/14 Q1020 NOSIG
LEAL 221030Z VRB01KT CAVOK 23/15 Q1020 NOSIG
LEAL 221000Z VRB02KT CAVOK 23/14 Q1020 NOSIG
LEAL 220930Z 00000KT CAVOK 23/15 Q1020 NOSIG
LEAL 220900Z VRB02KT CAVOK 22/14 Q1020 NOSIG
LEAL 220830Z VRB02KT CAVOK 21/15 Q1020 NOSIG
LEAL 220800Z VRB01KT CAVOK 19/16 Q1020 NOSIG
LEAL 220730Z VRB01KT CAVOK 18/15 Q1019 NOSIG
LEAL 220700Z 26003KT 230V290 CAVOK 16/14 Q1019 NOSIG
LEAL 220630Z 00000KT CAVOK 15/14 Q1019 NOSIG
LEAL 220600Z 27003KT 9999 FEW015 16/14 Q1018 NOSIG  
LEAL 220530Z 25005KT 9999 FEW015 16/14 Q1018 NOSIG  
LEAL 220500Z VRB02KT 9999 FEW015 16/14 Q1018 NOSIG  
LEAL 220430Z 25007KT 9999 FEW015 18/15 Q1018 NOSIG  
LEAL 220400Z 27006KT 9999 FEW015 17/15 Q1018 NOSIG  
LEAL 220330Z 26005KT 230V300 9999 FEW015 17/15 Q1018 NOSIG  
LEAL 220300Z 27007KT 9999 FEW015 18/15 Q1018 NOSIG  
LEAL 220230Z 25005KT 9999 FEW015 17/15 Q1018 NOSIG  
LEAL 220200Z 28006KT 250V320 9999 FEW015 18/16 Q1018 NOSIG  
LEAL 220130Z 27005KT 230V290 9999 FEW015 18/16 Q1019 NOSIG  
LEAL 220100Z 27004KT 9999 FEW015 18/16 Q1019 NOSIG  
LEAL 220030Z 28006KT 9999 FEW015 18/16 Q1019 NOSIG  
LEAL 220000Z 30003KT 280V340 9999 FEW015 18/17 Q1019 NOSIG  
LEAL 212330Z 30004KT 260V340 9999 FEW015 18/17 Q1019 NOSIG  
LEAL 212300Z 27004KT 9999 FEW012 19/17 Q1019 NOSIG  
LEAL 212230Z 24003KT 9999 FEW012 19/17 Q1019 NOSIG  
LEAL 212200Z 00000KT 9999 FEW012 20/18 Q1019 NOSIG  
LEAL 212130Z VRB02KT 9999 FEW012 21/19 Q1019 NOSIG  
LEAL 212100Z VRB01KT 9999 FEW012 21/18 Q1019 NOSIG  
LEAL 212030Z VRB02KT 9999 FEW012 21/19 Q1019 NOSIG  
LEAL 212000Z 04004KT 010V080 9999 FEW012 21/19 Q1019 NOSIG  
LEAL 211930Z 06006KT 030V090 9999 FEW012 22/19 Q1019 NOSIG  
LEAL 211900Z 07008KT 030V100 9999 FEW012 22/19 Q1019 NOSIG  
LEAL 211830Z 07009KT 9999 FEW012 22/19 Q1019 NOSIG  
LEAL 211800Z 07008KT 020V120 9999 FEW012 22/19 Q1018 NOSIG  
LEAL 211730Z 07008KT 030V110 9999 FEW018 22/19 Q1018 NOSIG  
LEAL 211700Z 07009KT CAVOK 22/19 Q1018 NOSIG
LEAL 211630Z 08011KT CAVOK 23/18 Q1018 NOSIG
LEAL 211600Z 08013KT CAVOK 23/18 Q1018 NOSIG
LEAL 211530Z 08014KT 9999 FEW025 24/18 Q1018 NOSIG  
LEAL 211500Z 08014KT 9999 FEW025 23/18 Q1018 NOSIG  
LEAL 211430Z 07012KT 9999 FEW025 24/18 Q1019 NOSIG  
LEAL 211400Z 07014KT 9999 FEW025 24/18 Q1019 NOSIG